Search for airport 
image banner adimage banner ad
image banner ad

EVAD - Adazi

Located in Adazi, Latvia

ICAO - EVAD, IATA -

Data provided by Airmate  

General information

Coordinates: N57°5'55" E24°15'60"
Elevation is 8 feet MSL.
Magnetic variation is 5° East
Rated:
View ratings: [VIEW]


View others Airports in Riga District

Operational data

Open for public use
Current time UTC:
Current local time:
Weather at : EVRA - Riga ( 26 km )
METAR: EVRA 211650Z 31008KT 270V350 9999 FEW023 BKN031 BKN037 14/10 Q1012 NOSIG
TAF: TAF EVRA 211402Z 2115/2215 31010KT 9999 BKN030 TEMPO 2115/2121 31015G27KT BECMG 2201/2203 01007KT TEMPO 2203/2210 3000 -RA BR BKN005 OVC010
View NOTAMs / SUP AIP / TFR affecting this airport [VIEW]
Communications frequencies: [VIEW]

Runways:

RWY identifierQFULength (ft)Width (ft)SurfaceLDA (ft)
15155°193649ASP+GRS1667
33335°193649ASP+GRS1568

Airport contact information

Address: Adazi Latvia

Other aviation service providers

Flight schools

Tmg

Tmg
info@tmg-ato.com+37129259085

Aviation club (not for profit)

First Fly

First Fly

Satellite view of EVAD